createdAt,value
2024-01-05T00:01:02.663Z,2.319
2024-01-05T00:06:02.045Z,1.564
2024-01-05T00:10:58.994Z,1.963
2024-01-05T00:15:59.744Z,0.461
2024-01-05T00:20:57.762Z,1.501
2024-01-05T00:26:01.651Z,0.577
2024-01-05T00:30:58.788Z,0.553
2024-01-05T00:35:58.414Z,0.577
2024-01-05T00:41:00.330Z,0.577
2024-01-05T00:46:03.555Z,1.419
2024-01-05T00:51:00.557Z,0.722
2024-01-05T00:55:55.698Z,1.011
2024-01-05T01:01:03.981Z,0.12
2024-01-05T01:05:52.726Z,1.203
2024-01-05T01:10:54.230Z,0.722
2024-01-05T01:15:56.256Z,0.866
2024-01-05T01:20:55.700Z,1.448
2024-01-05T01:25:51.275Z,0.866
2024-01-05T01:30:53.496Z,0
2024-01-05T01:35:52.061Z,1.184
2024-01-05T01:40:48.936Z,0.779
2024-01-05T01:45:52.611Z,0
2024-01-05T01:50:49.970Z,0.577
2024-01-05T01:55:51.218Z,0.842
2024-01-05T02:00:54.396Z,1.188
2024-01-05T02:05:54.527Z,0.75
2024-01-05T02:10:51.378Z,0.433
2024-01-05T02:15:51.798Z,1.155
2024-01-05T02:20:53.553Z,1.039
2024-01-05T02:25:50.428Z,0.697
2024-01-05T02:30:52.394Z,0.433
2024-01-05T02:35:52.171Z,1.689
2024-01-05T02:40:51.967Z,1.096
2024-01-05T02:45:52.316Z,0.722
2024-01-05T02:50:54.715Z,1.452
2024-01-05T02:55:54.814Z,0.144
2024-01-05T03:00:54.578Z,0.75
2024-01-05T03:05:54.528Z,0.577
2024-01-05T03:10:51.222Z,1.539
2024-01-05T03:15:54.277Z,1.708
2024-01-05T03:20:51.500Z,2.839
2024-01-05T03:25:51.701Z,4.385
2024-01-05T03:30:57.800Z,4.38
2024-01-05T03:36:00.773Z,5.708
2024-01-05T03:41:02.546Z,3.687
2024-01-05T03:46:00.560Z,5.921
2024-01-05T03:51:04.927Z,3.466
2024-01-05T03:56:05.225Z,2.805
2024-01-05T04:01:03.598Z,2.146
2024-01-05T04:05:57.918Z,3.773
2024-01-05T04:10:52.146Z,3.514
2024-01-05T04:15:54.482Z,2.96
2024-01-05T04:20:51.591Z,1.978
2024-01-05T04:25:52.369Z,3.037
2024-01-05T04:30:51.734Z,2.286
2024-01-05T04:35:54.777Z,0.817
2024-01-05T04:40:55.289Z,1.011
2024-01-05T04:45:51.568Z,0.842
2024-01-05T04:50:54.969Z,1.588
2024-01-05T04:55:51.653Z,5.299
2024-01-05T05:00:51.399Z,3.124
2024-01-05T05:05:52.795Z,1.828
2024-01-05T05:10:52.515Z,2.166
2024-01-05T05:15:53.783Z,1.645
2024-01-05T05:20:51.747Z,2.214
2024-01-05T05:25:54.567Z,1.328
2024-01-05T05:30:54.192Z,2.666
2024-01-05T05:35:54.870Z,2.801
2024-01-05T05:40:51.659Z,1.155
2024-01-05T05:45:51.407Z,0.288
2024-01-05T05:50:52.702Z,1.299
2024-01-05T05:55:53.683Z,1.877
2024-01-05T06:00:58.259Z,0.722
2024-01-05T06:05:51.623Z,1.78
2024-01-05T06:10:52.290Z,1.877
2024-01-05T06:15:54.326Z,1.597
2024-01-05T06:20:53.872Z,1.568
2024-01-05T06:25:56.008Z,3.908
2024-01-05T06:30:57.399Z,1.299
2024-01-05T06:35:55.432Z,2.719
2024-01-05T06:40:56.125Z,3.951
2024-01-05T06:46:35.308Z,3.065
2024-01-05T06:50:54.014Z,2.022
2024-01-05T06:55:54.910Z,2.676
2024-01-05T07:00:56.320Z,10.038
2024-01-05T07:05:56.272Z,4.452
2024-01-05T07:10:55.359Z,4.611
2024-01-05T07:15:56.848Z,3.152
2024-01-05T07:20:55.030Z,3.942
2024-01-05T07:25:57.725Z,3.913
2024-01-05T07:30:56.492Z,2.81
2024-01-05T07:35:57.802Z,4.939
2024-01-05T07:40:59.979Z,5.79
2024-01-05T07:45:58.292Z,5.56
2024-01-05T07:50:57.773Z,5.655
2024-01-05T07:55:55.934Z,3.263
2024-01-05T08:01:02.034Z,5.69
2024-01-05T08:05:56.260Z,5.266
2024-01-05T08:10:59.164Z,4.424
2024-01-05T08:15:58.012Z,5.545
2024-01-05T08:20:59.452Z,3.913
2024-01-05T08:25:58.148Z,4.462
2024-01-05T08:30:59.924Z,3.778
2024-01-05T08:36:00.601Z,6.354
2024-01-05T08:40:58.882Z,3.787
2024-01-05T08:45:57.920Z,5.348
2024-01-05T08:50:57.566Z,5.026
2024-01-05T08:55:55.802Z,4.645
2024-01-05T09:01:01.985Z,5.015
2024-01-05T09:05:57.199Z,5.655
2024-01-05T09:10:56.438Z,5.395
2024-01-05T09:15:55.003Z,6.595
2024-01-05T09:20:59.483Z,6.118
2024-01-05T09:25:59.091Z,6.311
2024-01-05T09:30:58.466Z,3.166
2024-01-05T09:35:58.215Z,3.851
2024-01-05T09:40:59.845Z,2.262
2024-01-05T09:45:57.352Z,3.798
2024-01-05T09:50:56.728Z,2.7
2024-01-05T09:55:58.779Z,2.054
2024-01-05T10:00:57.456Z,1.592
2024-01-05T10:05:56.594Z,2.319
2024-01-05T10:10:57.211Z,1.828
2024-01-05T10:15:56.721Z,1.997
2024-01-05T10:20:57.416Z,2.339
2024-01-05T10:25:58.030Z,3.22
2024-01-05T10:31:01.406Z,2.203
2024-01-05T10:35:55.494Z,3.152
2024-01-05T10:40:56.398Z,1.444
2024-01-05T10:45:59.450Z,1.877
2024-01-05T10:50:54.585Z,1.304
2024-01-05T10:55:55.463Z,2.512
2024-01-05T11:00:58.076Z,2.632
2024-01-05T11:05:56.258Z,2.574
2024-01-05T11:10:56.834Z,1.444
2024-01-05T11:15:55.086Z,1.241
2024-01-05T11:21:00.706Z,1.304
2024-01-05T11:25:58.039Z,2.892
2024-01-05T11:30:58.268Z,2.347
2024-01-05T11:35:55.887Z,7.2
2024-01-05T11:40:56.902Z,10.147
2024-01-05T11:45:59.687Z,8.203
2024-01-05T11:50:55.190Z,10.702
2024-01-05T11:55:56.022Z,11.158
2024-01-05T12:00:56.271Z,11.5
2024-01-05T12:10:57.627Z,14.072
2024-01-05T12:20:55.476Z,12.776
2024-01-05T12:25:56.228Z,12.431
2024-01-05T12:30:56.676Z,11.789
2024-01-05T12:35:56.738Z,11.678
2024-01-05T12:40:59.641Z,10.143
2024-01-05T12:45:55.895Z,14.958
2024-01-05T12:50:56.298Z,11.144
2024-01-05T12:55:55.552Z,13.287
2024-01-05T13:00:57.747Z,15.203
2024-01-05T13:05:56.389Z,10.509
2024-01-05T13:10:54.617Z,15.252
2024-01-05T13:15:56.337Z,14.1
2024-01-05T13:20:55.450Z,11.38
2024-01-05T13:25:56.506Z,16.532
2024-01-05T13:31:00.015Z,15.473
2024-01-05T13:35:58.161Z,13.378
2024-01-05T13:40:55.700Z,14.587
2024-01-05T13:45:59.007Z,16.157
2024-01-05T13:50:56.681Z,16.089
2024-01-05T13:56:02.439Z,17.134
2024-01-05T14:00:58.913Z,18.727
2024-01-05T14:05:56.056Z,15.695
2024-01-05T14:10:57.699Z,14.101
2024-01-05T14:15:55.788Z,17.5
2024-01-05T14:20:58.977Z,16.706
2024-01-05T14:26:02.807Z,14.611
2024-01-05T14:30:57.143Z,16.865
2024-01-05T14:36:00.886Z,13.691
2024-01-05T14:40:59.382Z,14.413
2024-01-05T14:45:58.506Z,14.843
2024-01-05T14:50:55.661Z,13.97
2024-01-05T14:55:54.045Z,13.918
2024-01-05T15:00:56.696Z,15.131
2024-01-05T15:05:52.841Z,15.049
2024-01-05T15:10:54.650Z,16.667
2024-01-05T15:15:55.344Z,15.338
2024-01-05T15:20:54.098Z,15.034
2024-01-05T15:25:53.665Z,14.053
2024-01-05T15:30:54.621Z,17.158
2024-01-05T15:35:53.861Z,15.906
2024-01-05T15:40:52.799Z,18.579
2024-01-05T15:45:57.298Z,18.093
2024-01-05T15:50:52.596Z,14.321
2024-01-05T15:56:01.709Z,16.729
2024-01-05T16:00:58.331Z,20.004
2024-01-05T16:05:54.801Z,20.99
2024-01-05T16:10:55.891Z,19.435
2024-01-05T16:15:54.095Z,17.682
2024-01-05T16:20:50.592Z,23.412
2024-01-05T16:25:50.930Z,19.253
2024-01-05T16:30:52.808Z,23.908
2024-01-05T16:35:51.710Z,21.789
2024-01-05T16:40:54.339Z,20.032
2024-01-05T16:45:56.168Z,26.329
2024-01-05T16:50:50.913Z,25.95
2024-01-05T16:55:54.342Z,19.012
2024-01-05T17:00:55.425Z,22.826
2024-01-05T17:05:56.980Z,19.657
2024-01-05T17:10:53.734Z,18.429
2024-01-05T17:15:53.325Z,20.181
2024-01-05T17:20:51.433Z,20.74
2024-01-05T17:25:52.946Z,20.253
2024-01-05T17:30:52.584Z,22.508
2024-01-05T17:35:50.131Z,22.011
2024-01-05T17:40:49.401Z,23.504
2024-01-05T17:45:53.451Z,20.191
2024-01-05T17:50:53.495Z,21.047
2024-01-05T17:55:54.828Z,22.993
2024-01-05T18:00:59.112Z,19.45
2024-01-05T18:05:51.111Z,24.697
2024-01-05T18:10:52.135Z,25.405
2024-01-05T18:15:51.336Z,20.23
2024-01-05T18:20:55.890Z,22.054
2024-01-05T18:25:55.546Z,22.565
2024-01-05T18:30:56.349Z,18.472
2024-01-05T18:35:51.634Z,20.037
2024-01-05T18:40:51.505Z,20.316
2024-01-05T18:45:51.949Z,26.701
2024-01-05T18:50:52.186Z,24.9
2024-01-05T18:56:00.954Z,24.938
2024-01-05T19:00:50.717Z,23.591
2024-01-05T19:05:51.537Z,22.185
2024-01-05T19:10:56.761Z,20.927
2024-01-05T19:15:53.933Z,22.083
2024-01-05T19:20:53.010Z,20.659
2024-01-05T19:25:54.027Z,22.815
2024-01-05T19:30:52.697Z,23.022
2024-01-05T19:35:55.776Z,21.717
2024-01-05T19:40:51.952Z,24.423
2024-01-05T19:45:56.816Z,19.584
2024-01-05T19:50:55.551Z,23.253
2024-01-05T19:55:52.348Z,23.817
2024-01-05T20:00:49.877Z,21.405
2024-01-05T20:05:50.083Z,20.696
2024-01-05T20:10:51.119Z,21.491
2024-01-05T20:15:57.838Z,22.315
2024-01-05T20:20:52.633Z,20.687
2024-01-05T20:25:55.741Z,24.697
2024-01-05T20:30:54.290Z,31.992
2024-01-05T20:35:51.874Z,24.168
2024-01-05T20:40:49.745Z,26.379
2024-01-05T20:45:52.492Z,24.962
2024-01-05T20:50:55.377Z,32.416
2024-01-05T20:55:52.965Z,21.424
2024-01-05T21:00:49.873Z,19.176
2024-01-05T21:05:52.392Z,18.775
2024-01-05T21:10:51.951Z,21.101
2024-01-05T21:15:58.306Z,19.108
2024-01-05T21:20:53.079Z,17.105
2024-01-05T21:25:52.345Z,18.015
2024-01-05T21:30:53.918Z,16.48
2024-01-05T21:35:51.508Z,17.269
2024-01-05T21:40:52.293Z,17.148
2024-01-05T21:45:56.147Z,15.631
2024-01-05T21:50:49.347Z,21.144
2024-01-05T21:55:54.301Z,22.397
2024-01-05T22:00:48.643Z,25.873
2024-01-05T22:05:46.602Z,23.003
2024-01-05T22:10:48.915Z,24.206
2024-01-05T22:15:50.798Z,20.182
2024-01-05T22:20:53.093Z,19.806
2024-01-05T22:25:52.392Z,20.404
2024-01-05T22:30:53.402Z,21.005
2024-01-05T22:35:50.199Z,24.683
2024-01-05T22:40:52.387Z,30.717
2024-01-05T22:45:51.713Z,22.335
2024-01-05T22:50:50.605Z,31.366
2024-01-05T22:55:54.616Z,28.371
2024-01-05T23:00:58.536Z,28.112
2024-01-05T23:05:54.032Z,26.484
2024-01-05T23:10:51.590Z,32.078
2024-01-05T23:15:56.636Z,29.31
2024-01-05T23:20:50.924Z,20.942
2024-01-05T23:25:50.820Z,24.477
2024-01-05T23:30:50.550Z,22.122
2024-01-05T23:35:48.363Z,21.915
2024-01-05T23:40:52.759Z,20.577
2024-01-05T23:45:47.526Z,20.21
2024-01-05T23:50:51.347Z,20.875
2024-01-05T23:55:50.738Z,21.237
